Meteo Giornale » Osservazioni meteo Canada » Deer Lake Nfld
ore: 17:30 - Osservazioni Meteo Deer Lake Nfld
Lat. 49° 13' N Lon. 57° 24' W Alt. 17 metri s.l.m.
13 °C
Pioggia
Temp. 24 Ore
11 °C
18 °C
Nord-Ovest
18.5 Km/h
Dew point 9 °C
Umidità 76 %
Visibilità 19 Km
Il sole sorge alle ore 06:34
Il sole tramonta alle ore 20:04
| Data e Ora | Cielo e Fenomeni | T °C | DP °C | Um. % | Pres. hPa | Vis. km | Vento km/h | |
|---|---|---|---|---|---|---|---|---|
| Oggi h: 17:30 | Pioggia | 13 | 9 | 76 | 1008 | 19 | NO 18.5 | |
| Oggi h: 17:25 | Pioggia | 14 | 9 | 71 | 1008 | 19 | NO 18.5 | |
| Oggi h: 16:30 | Molto Nuvoloso | 14 | 8 | 67 | 1008 | 24 | O/NO 7.4 | |
| Oggi h: 15:30 | Coperto | 15 | 8 | 62 | 1007 | 24 | NO 18.5 | |
| Oggi h: 14:30 | Molto Nuvoloso | 15 | 7 | 58 | 1006 | 24 | O/NO 13 | |
| Oggi h: 13:30 | Molto Nuvoloso | 17 | 9 | 59 | 1005 | 24 | NO 16.7 | |
| Oggi h: 12:30 | Molto Nuvoloso | 18 | 11 | 63 | 1005 | 24 | O/NO 14.8 | |
| Oggi h: 11:30 | Molto Nuvoloso | 18 | 11 | 63 | 1005 | 24 | O 13 | |
| Oggi h: 10:30 | Nuvoloso | 18 | 11 | 63 | 1004 | 24 | O/SO 20.3 | |
| Oggi h: 09:30 | Nuvoloso | 17 | 13 | 77 | 1004 | 24 | SO 22.2 | |
| Oggi h: 08:30 | Nuvoloso | 15 | 12 | 82 | 1005 | 24 | SO 25.9 | |
| Oggi h: 07:30 | Poco Nuvoloso | 14 | 12 | 87 | 1005 | 24 | SO 16.7 | |
| Oggi h: 06:30 | Poco Nuvoloso | 13 | 12 | 93 | 1004 | 24 | SO 14.8 | |
| Oggi h: 05:30 | Nuvoloso | 11 | 10 | 93 | 1005 | 24 | SO 11.1 | |
| Oggi h: 04:30 | Molto Nuvoloso | 11 | 11 | 100 | 1005 | 24 | S/SO 9.3 | |
| Oggi h: 03:30 | Molto Nuvoloso | 13 | 12 | 93 | 1005 | 24 | SO 9.3 | |
| Oggi h: 02:30 | Nuvoloso | 14 | 12 | 87 | 1005 | 24 | SO 14.8 | |
| Oggi h: 01:30 | Nuvoloso | 14 | 12 | 87 | 1006 | 24 | O/SO 13 | |
| Oggi h: 00:30 | Nuvoloso | 15 | 13 | 87 | 1006 | 24 | SO 20.3 | |
| Ieri h: 23:30 | Nuvoloso | 15 | 13 | 87 | 1006 | 24 | SO 18.5 | |
| Ieri h: 22:30 | Nuvoloso | 15 | 12 | 82 | 1007 | 24 | SO 13 | |
| Ieri h: 21:30 | Molto Nuvoloso | 16 | 12 | 77 | 1007 | 24 | O/SO 13 | |
| Ieri h: 20:30 | Molto Nuvoloso | 17 | 13 | 77 | 1006 | 24 | O/SO 13 | |
| Ieri h: 19:30 | Molto Nuvoloso | 16 | 15 | 93 | 1006 | 24 | SO 18.5 | |
| Ieri h: 19:20 | Molto Nuvoloso | 17 | 15 | 88 | 1006 | 24 | SO 18.5 | |



